Arpin, Wisconsin
Current Conditions -  °F | °C
As of 6:54 AM on Sunday 23 Nov 2014 (Local Time) from KMFI Reporting Station
Light Rain Light Rain  
Wind Chill: 42°   Ceiling: 200
Heat Index: 46°   Visibility: 0.25mi
Dew Point: 45°   Wind: 7mph
Humidity: 96%   Direction: 180°S
Pressure: 29.55"   Gusts: NA
Location:  44.54°N, 90.04°W
Report Text: KMFI 231254Z AUTO 18006KT 1/4SM -RA FG VV002 08/07 A2955 RMK AO2 SLP015 P0000 T00780072
Loading
Personal Weather Stations






























Interactive Weather Map New forecast layout! Learn more

10-Day Weather Forecast

Advertisements
Track Severe Weather on mobile